sensor_id;sensor_type;location;lat;lon;timestamp;P1;durP1;ratioP1;P2;durP2;ratioP2
41921;SDS011;27609;51.002;5.354;2023-11-21T00:02:14;40.17;;;16.45;;
41921;SDS011;27609;51.002;5.354;2023-11-21T00:04:40;45.13;;;17.05;;
41921;SDS011;27609;51.002;5.354;2023-11-21T00:07:06;41.42;;;16.58;;
41921;SDS011;27609;51.002;5.354;2023-11-21T00:09:32;49.25;;;18.23;;
41921;SDS011;27609;51.002;5.354;2023-11-21T00:11:57;56.40;;;19.92;;
41921;SDS011;27609;51.002;5.354;2023-11-21T00:14:24;50.88;;;18.13;;
41921;SDS011;27609;51.002;5.354;2023-11-21T00:16:50;45.30;;;17.67;;
41921;SDS011;27609;51.002;5.354;2023-11-21T00:19:16;57.97;;;19.63;;
41921;SDS011;27609;51.002;5.354;2023-11-21T00:21:42;48.35;;;17.73;;
41921;SDS011;27609;51.002;5.354;2023-11-21T00:24:11;56.25;;;19.10;;
41921;SDS011;27609;51.002;5.354;2023-11-21T00:26:39;46.97;;;18.20;;
41921;SDS011;27609;51.002;5.354;2023-11-21T00:29:05;59.42;;;19.60;;
41921;SDS011;27609;51.002;5.354;2023-11-21T00:31:33;52.28;;;19.10;;
41921;SDS011;27609;51.002;5.354;2023-11-21T00:34:02;65.13;;;20.88;;
41921;SDS011;27609;51.002;5.354;2023-11-21T00:36:30;52.58;;;20.23;;
41921;SDS011;27609;51.002;5.354;2023-11-21T00:38:56;64.97;;;20.85;;
41921;SDS011;27609;51.002;5.354;2023-11-21T00:41:22;56.25;;;19.65;;
41921;SDS011;27609;51.002;5.354;2023-11-21T00:43:48;64.97;;;22.63;;
41921;SDS011;27609;51.002;5.354;2023-11-21T00:46:14;64.70;;;22.90;;
41921;SDS011;27609;51.002;5.354;2023-11-21T00:48:39;61.15;;;22.15;;
41921;SDS011;27609;51.002;5.354;2023-11-21T00:51:05;65.97;;;22.65;;
41921;SDS011;27609;51.002;5.354;2023-11-21T00:53:31;70.63;;;21.00;;
41921;SDS011;27609;51.002;5.354;2023-11-21T00:55:57;81.38;;;22.05;;
41921;SDS011;27609;51.002;5.354;2023-11-21T00:58:23;90.43;;;24.52;;
41921;SDS011;27609;51.002;5.354;2023-11-21T01:00:49;75.32;;;21.80;;
41921;SDS011;27609;51.002;5.354;2023-11-21T01:03:16;81.13;;;21.98;;
41921;SDS011;27609;51.002;5.354;2023-11-21T01:05:41;80.07;;;21.85;;
41921;SDS011;27609;51.002;5.354;2023-11-21T01:08:07;80.20;;;22.38;;
41921;SDS011;27609;51.002;5.354;2023-11-21T01:10:33;80.97;;;21.90;;
41921;SDS011;27609;51.002;5.354;2023-11-21T01:13:02;77.40;;;21.20;;
41921;SDS011;27609;51.002;5.354;2023-11-21T01:15:30;72.57;;;21.25;;
41921;SDS011;27609;51.002;5.354;2023-11-21T01:17:56;83.82;;;21.90;;
41921;SDS011;27609;51.002;5.354;2023-11-21T01:20:22;79.75;;;21.77;;
41921;SDS011;27609;51.002;5.354;2023-11-21T01:22:47;79.25;;;21.88;;
41921;SDS011;27609;51.002;5.354;2023-11-21T01:25:16;76.78;;;21.80;;
41921;SDS011;27609;51.002;5.354;2023-11-21T01:27:42;81.70;;;22.65;;
41921;SDS011;27609;51.002;5.354;2023-11-21T01:30:08;90.30;;;22.95;;
41921;SDS011;27609;51.002;5.354;2023-11-21T01:32:37;69.13;;;22.13;;
41921;SDS011;27609;51.002;5.354;2023-11-21T01:35:04;73.53;;;22.60;;
41921;SDS011;27609;51.002;5.354;2023-11-21T01:37:31;69.40;;;22.30;;
41921;SDS011;27609;51.002;5.354;2023-11-21T01:39:58;82.15;;;22.20;;
41921;SDS011;27609;51.002;5.354;2023-11-21T01:42:24;82.03;;;21.15;;
41921;SDS011;27609;51.002;5.354;2023-11-21T01:44:50;85.18;;;24.40;;
41921;SDS011;27609;51.002;5.354;2023-11-21T01:47:16;82.72;;;24.38;;
41921;SDS011;27609;51.002;5.354;2023-11-21T01:49:45;90.10;;;24.60;;
41921;SDS011;27609;51.002;5.354;2023-11-21T01:52:11;91.25;;;25.73;;
41921;SDS011;27609;51.002;5.354;2023-11-21T01:54:38;78.90;;;22.58;;
41921;SDS011;27609;51.002;5.354;2023-11-21T01:57:04;69.82;;;20.80;;
41921;SDS011;27609;51.002;5.354;2023-11-21T01:59:37;67.13;;;21.83;;
41921;SDS011;27609;51.002;5.354;2023-11-21T02:02:07;74.78;;;23.27;;
41921;SDS011;27609;51.002;5.354;2023-11-21T02:04:33;68.40;;;23.25;;
41921;SDS011;27609;51.002;5.354;2023-11-21T02:06:59;70.82;;;22.88;;
41921;SDS011;27609;51.002;5.354;2023-11-21T02:09:26;70.30;;;21.55;;
41921;SDS011;27609;51.002;5.354;2023-11-21T02:11:52;67.63;;;21.35;;
41921;SDS011;27609;51.002;5.354;2023-11-21T02:14:19;56.10;;;20.08;;
41921;SDS011;27609;51.002;5.354;2023-11-21T02:16:47;61.42;;;20.80;;
41921;SDS011;27609;51.002;5.354;2023-11-21T02:19:20;54.88;;;20.02;;
41921;SDS011;27609;51.002;5.354;2023-11-21T02:21:50;62.58;;;20.38;;
41921;SDS011;27609;51.002;5.354;2023-11-21T02:24:20;55.00;;;20.83;;
41921;SDS011;27609;51.002;5.354;2023-11-21T02:26:46;62.05;;;21.38;;
41921;SDS011;27609;51.002;5.354;2023-11-21T02:29:12;54.05;;;20.52;;
41921;SDS011;27609;51.002;5.354;2023-11-21T02:31:38;55.15;;;19.80;;
41921;SDS011;27609;51.002;5.354;2023-11-21T02:34:13;58.70;;;19.60;;
41921;SDS011;27609;51.002;5.354;2023-11-21T02:36:43;61.85;;;19.52;;
41921;SDS011;27609;51.002;5.354;2023-11-21T02:39:10;63.70;;;21.35;;
41921;SDS011;27609;51.002;5.354;2023-11-21T02:41:37;62.65;;;21.67;;
41921;SDS011;27609;51.002;5.354;2023-11-21T02:44:04;57.25;;;21.13;;
41921;SDS011;27609;51.002;5.354;2023-11-21T02:46:31;59.95;;;21.48;;
41921;SDS011;27609;51.002;5.354;2023-11-21T02:49:00;69.20;;;23.70;;
41921;SDS011;27609;51.002;5.354;2023-11-21T02:51:26;74.13;;;24.75;;
41921;SDS011;27609;51.002;5.354;2023-11-21T02:53:52;77.13;;;26.30;;
41921;SDS011;27609;51.002;5.354;2023-11-21T02:56:18;69.93;;;24.40;;
41921;SDS011;27609;51.002;5.354;2023-11-21T02:58:43;78.22;;;25.80;;
41921;SDS011;27609;51.002;5.354;2023-11-21T03:01:10;75.93;;;22.83;;
41921;SDS011;27609;51.002;5.354;2023-11-21T03:03:37;77.70;;;25.67;;
41921;SDS011;27609;51.002;5.354;2023-11-21T03:06:05;84.00;;;25.90;;
41921;SDS011;27609;51.002;5.354;2023-11-21T03:08:31;82.97;;;27.38;;
41921;SDS011;27609;51.002;5.354;2023-11-21T03:10:57;83.07;;;28.00;;
41921;SDS011;27609;51.002;5.354;2023-11-21T03:13:23;80.80;;;26.08;;
41921;SDS011;27609;51.002;5.354;2023-11-21T03:15:49;84.38;;;25.33;;
41921;SDS011;27609;51.002;5.354;2023-11-21T03:18:14;92.20;;;24.92;;
41921;SDS011;27609;51.002;5.354;2023-11-21T03:20:40;81.65;;;26.80;;
41921;SDS011;27609;51.002;5.354;2023-11-21T03:23:06;91.55;;;27.27;;
41921;SDS011;27609;51.002;5.354;2023-11-21T03:25:32;68.85;;;23.00;;
41921;SDS011;27609;51.002;5.354;2023-11-21T03:27:58;93.43;;;24.20;;
41921;SDS011;27609;51.002;5.354;2023-11-21T03:30:23;82.35;;;22.73;;
41921;SDS011;27609;51.002;5.354;2023-11-21T03:32:49;79.88;;;24.33;;
41921;SDS011;27609;51.002;5.354;2023-11-21T03:35:15;95.82;;;25.40;;
41921;SDS011;27609;51.002;5.354;2023-11-21T03:37:40;105.97;;;23.90;;
41921;SDS011;27609;51.002;5.354;2023-11-21T03:40:08;63.72;;;19.90;;
41921;SDS011;27609;51.002;5.354;2023-11-21T03:42:34;64.88;;;17.55;;
41921;SDS011;27609;51.002;5.354;2023-11-21T03:45:00;79.78;;;20.33;;
41921;SDS011;27609;51.002;5.354;2023-11-21T03:47:26;88.20;;;21.73;;
41921;SDS011;27609;51.002;5.354;2023-11-21T03:49:53;97.47;;;21.25;;
41921;SDS011;27609;51.002;5.354;2023-11-21T03:52:18;93.85;;;25.17;;
41921;SDS011;27609;51.002;5.354;2023-11-21T03:54:44;90.93;;;24.40;;
41921;SDS011;27609;51.002;5.354;2023-11-21T03:57:10;92.68;;;25.50;;
41921;SDS011;27609;51.002;5.354;2023-11-21T03:59:36;118.32;;;24.98;;
41921;SDS011;27609;51.002;5.354;2023-11-21T04:02:05;119.15;;;22.38;;
41921;SDS011;27609;51.002;5.354;2023-11-21T04:04:31;88.50;;;22.33;;
41921;SDS011;27609;51.002;5.354;2023-11-21T04:06:57;84.05;;;22.73;;
41921;SDS011;27609;51.002;5.354;2023-11-21T04:09:22;85.70;;;23.48;;
41921;SDS011;27609;51.002;5.354;2023-11-21T04:11:50;83.38;;;22.50;;
41921;SDS011;27609;51.002;5.354;2023-11-21T04:14:16;82.60;;;20.10;;
41921;SDS011;27609;51.002;5.354;2023-11-21T04:16:42;81.60;;;20.90;;
41921;SDS011;27609;51.002;5.354;2023-11-21T04:19:07;76.68;;;20.92;;
41921;SDS011;27609;51.002;5.354;2023-11-21T04:21:35;75.60;;;21.25;;
41921;SDS011;27609;51.002;5.354;2023-11-21T04:24:04;78.93;;;21.92;;
41921;SDS011;27609;51.002;5.354;2023-11-21T04:26:31;97.05;;;26.25;;
41921;SDS011;27609;51.002;5.354;2023-11-21T04:28:56;97.40;;;27.65;;
41921;SDS011;27609;51.002;5.354;2023-11-21T04:31:22;113.53;;;23.20;;
41921;SDS011;27609;51.002;5.354;2023-11-21T04:33:48;107.13;;;23.38;;
41921;SDS011;27609;51.002;5.354;2023-11-21T04:36:14;86.55;;;23.10;;
41921;SDS011;27609;51.002;5.354;2023-11-21T04:38:39;102.30;;;23.60;;
41921;SDS011;27609;51.002;5.354;2023-11-21T04:41:05;92.05;;;22.98;;
41921;SDS011;27609;51.002;5.354;2023-11-21T04:43:31;67.22;;;17.35;;
41921;SDS011;27609;51.002;5.354;2023-11-21T04:45:57;71.03;;;18.25;;
41921;SDS011;27609;51.002;5.354;2023-11-21T04:48:23;102.57;;;19.02;;
41921;SDS011;27609;51.002;5.354;2023-11-21T04:50:48;78.15;;;18.23;;
41921;SDS011;27609;51.002;5.354;2023-11-21T04:53:14;85.50;;;20.48;;
41921;SDS011;27609;51.002;5.354;2023-11-21T04:55:43;85.20;;;20.40;;
41921;SDS011;27609;51.002;5.354;2023-11-21T04:58:09;114.45;;;21.83;;
41921;SDS011;27609;51.002;5.354;2023-11-21T05:00:36;93.13;;;20.83;;
41921;SDS011;27609;51.002;5.354;2023-11-21T05:03:02;90.35;;;20.52;;
41921;SDS011;27609;51.002;5.354;2023-11-21T05:05:28;91.43;;;19.77;;
41921;SDS011;27609;51.002;5.354;2023-11-21T05:07:57;110.53;;;21.10;;
41921;SDS011;27609;51.002;5.354;2023-11-21T05:10:23;90.82;;;22.63;;
41921;SDS011;27609;51.002;5.354;2023-11-21T05:12:48;103.18;;;25.23;;
41921;SDS011;27609;51.002;5.354;2023-11-21T05:15:15;101.10;;;21.77;;
41921;SDS011;27609;51.002;5.354;2023-11-21T05:17:42;79.88;;;20.40;;
41921;SDS011;27609;51.002;5.354;2023-11-21T05:20:12;95.22;;;22.55;;
41921;SDS011;27609;51.002;5.354;2023-11-21T05:22:42;110.07;;;21.02;;
41921;SDS011;27609;51.002;5.354;2023-11-21T05:25:08;83.90;;;19.10;;
41921;SDS011;27609;51.002;5.354;2023-11-21T05:27:34;98.90;;;18.38;;
41921;SDS011;27609;51.002;5.354;2023-11-21T05:30:03;103.13;;;19.75;;
41921;SDS011;27609;51.002;5.354;2023-11-21T05:32:30;95.50;;;21.17;;
41921;SDS011;27609;51.002;5.354;2023-11-21T05:34:56;124.72;;;21.52;;
41921;SDS011;27609;51.002;5.354;2023-11-21T05:37:22;165.55;;;25.48;;
41921;SDS011;27609;51.002;5.354;2023-11-21T05:39:48;103.50;;;22.80;;
41921;SDS011;27609;51.002;5.354;2023-11-21T05:42:14;128.15;;;23.00;;
41921;SDS011;27609;51.002;5.354;2023-11-21T05:44:43;160.40;;;22.80;;
41921;SDS011;27609;51.002;5.354;2023-11-21T05:47:09;108.07;;;23.38;;
41921;SDS011;27609;51.002;5.354;2023-11-21T05:49:35;87.93;;;20.85;;
41921;SDS011;27609;51.002;5.354;2023-11-21T05:52:02;101.53;;;21.73;;
41921;SDS011;27609;51.002;5.354;2023-11-21T05:54:27;183.07;;;24.13;;
41921;SDS011;27609;51.002;5.354;2023-11-21T05:56:53;189.05;;;26.33;;
41921;SDS011;27609;51.002;5.354;2023-11-21T05:59:19;155.85;;;25.42;;
41921;SDS011;27609;51.002;5.354;2023-11-21T06:01:45;129.98;;;21.88;;
41921;SDS011;27609;51.002;5.354;2023-11-21T06:04:11;135.13;;;22.65;;
41921;SDS011;27609;51.002;5.354;2023-11-21T06:06:37;132.63;;;21.40;;
41921;SDS011;27609;51.002;5.354;2023-11-21T06:09:04;192.82;;;24.40;;
41921;SDS011;27609;51.002;5.354;2023-11-21T06:11:33;121.20;;;22.35;;
41921;SDS011;27609;51.002;5.354;2023-11-21T06:13:59;119.13;;;21.35;;
41921;SDS011;27609;51.002;5.354;2023-11-21T06:16:25;132.95;;;24.38;;
41921;SDS011;27609;51.002;5.354;2023-11-21T06:18:50;99.35;;;21.42;;
41921;SDS011;27609;51.002;5.354;2023-11-21T06:21:16;133.52;;;22.65;;
41921;SDS011;27609;51.002;5.354;2023-11-21T06:23:43;107.50;;;23.33;;
41921;SDS011;27609;51.002;5.354;2023-11-21T06:26:08;140.27;;;21.48;;
41921;SDS011;27609;51.002;5.354;2023-11-21T06:28:34;138.55;;;23.63;;
41921;SDS011;27609;51.002;5.354;2023-11-21T06:31:01;134.23;;;22.88;;
41921;SDS011;27609;51.002;5.354;2023-11-21T06:33:33;113.78;;;29.10;;
41921;SDS011;27609;51.002;5.354;2023-11-21T06:35:59;101.78;;;24.15;;
41921;SDS011;27609;51.002;5.354;2023-11-21T06:38:28;115.78;;;23.25;;
41921;SDS011;27609;51.002;5.354;2023-11-21T06:40:58;104.43;;;25.85;;
41921;SDS011;27609;51.002;5.354;2023-11-21T06:43:26;100.82;;;25.75;;
41921;SDS011;27609;51.002;5.354;2023-11-21T06:45:52;92.85;;;23.50;;
41921;SDS011;27609;51.002;5.354;2023-11-21T06:48:18;111.78;;;24.58;;
41921;SDS011;27609;51.002;5.354;2023-11-21T06:50:43;111.57;;;25.55;;
41921;SDS011;27609;51.002;5.354;2023-11-21T06:53:09;91.75;;;22.65;;
41921;SDS011;27609;51.002;5.354;2023-11-21T06:55:35;105.38;;;24.50;;
41921;SDS011;27609;51.002;5.354;2023-11-21T06:58:00;120.65;;;25.05;;
41921;SDS011;27609;51.002;5.354;2023-11-21T07:00:26;113.53;;;26.02;;
41921;SDS011;27609;51.002;5.354;2023-11-21T07:02:55;103.72;;;27.58;;
41921;SDS011;27609;51.002;5.354;2023-11-21T07:05:21;105.32;;;26.88;;
41921;SDS011;27609;51.002;5.354;2023-11-21T07:07:47;100.38;;;25.55;;
41921;SDS011;27609;51.002;5.354;2023-11-21T07:10:14;109.68;;;25.58;;
41921;SDS011;27609;51.002;5.354;2023-11-21T07:12:40;121.90;;;27.13;;
41921;SDS011;27609;51.002;5.354;2023-11-21T07:15:06;92.82;;;25.90;;
41921;SDS011;27609;51.002;5.354;2023-11-21T07:17:37;104.10;;;24.75;;
41921;SDS011;27609;51.002;5.354;2023-11-21T07:20:03;109.38;;;31.48;;
41921;SDS011;27609;51.002;5.354;2023-11-21T07:22:29;103.55;;;28.45;;
41921;SDS011;27609;51.002;5.354;2023-11-21T07:24:55;87.60;;;25.48;;
41921;SDS011;27609;51.002;5.354;2023-11-21T07:27:24;84.88;;;26.45;;
41921;SDS011;27609;51.002;5.354;2023-11-21T07:29:49;91.63;;;25.10;;
41921;SDS011;27609;51.002;5.354;2023-11-21T07:32:15;90.88;;;24.67;;
41921;SDS011;27609;51.002;5.354;2023-11-21T07:34:41;105.28;;;25.80;;
41921;SDS011;27609;51.002;5.354;2023-11-21T07:37:07;96.10;;;25.45;;
41921;SDS011;27609;51.002;5.354;2023-11-21T07:39:34;88.95;;;26.42;;
41921;SDS011;27609;51.002;5.354;2023-11-21T07:42:01;111.05;;;26.13;;
41921;SDS011;27609;51.002;5.354;2023-11-21T07:44:27;83.88;;;27.58;;
41921;SDS011;27609;51.002;5.354;2023-11-21T07:46:54;90.22;;;26.25;;
41921;SDS011;27609;51.002;5.354;2023-11-21T07:49:22;95.22;;;30.05;;
41921;SDS011;27609;51.002;5.354;2023-11-21T07:51:49;95.22;;;28.83;;
41921;SDS011;27609;51.002;5.354;2023-11-21T07:54:14;87.32;;;25.13;;
41921;SDS011;27609;51.002;5.354;2023-11-21T07:56:41;90.10;;;26.95;;
41921;SDS011;27609;51.002;5.354;2023-11-21T07:59:07;83.00;;;27.00;;
41921;SDS011;27609;51.002;5.354;2023-11-21T08:01:33;88.90;;;27.33;;
41921;SDS011;27609;51.002;5.354;2023-11-21T08:03:58;87.47;;;26.55;;
41921;SDS011;27609;51.002;5.354;2023-11-21T08:06:28;91.13;;;30.83;;
41921;SDS011;27609;51.002;5.354;2023-11-21T08:08:57;97.78;;;27.00;;
41921;SDS011;27609;51.002;5.354;2023-11-21T08:11:23;95.47;;;27.25;;
41921;SDS011;27609;51.002;5.354;2023-11-21T08:13:49;88.35;;;26.15;;
41921;SDS011;27609;51.002;5.354;2023-11-21T08:16:15;83.72;;;26.70;;
41921;SDS011;27609;51.002;5.354;2023-11-21T08:18:41;89.95;;;27.77;;
41921;SDS011;27609;51.002;5.354;2023-11-21T08:21:07;101.93;;;27.63;;
41921;SDS011;27609;51.002;5.354;2023-11-21T08:23:33;96.45;;;27.02;;
41921;SDS011;27609;51.002;5.354;2023-11-21T08:25:59;98.40;;;26.85;;
41921;SDS011;27609;51.002;5.354;2023-11-21T08:28:25;91.57;;;29.45;;
41921;SDS011;27609;51.002;5.354;2023-11-21T08:30:54;87.25;;;26.88;;
41921;SDS011;27609;51.002;5.354;2023-11-21T08:33:19;95.85;;;28.55;;
41921;SDS011;27609;51.002;5.354;2023-11-21T08:35:45;102.85;;;28.58;;
41921;SDS011;27609;51.002;5.354;2023-11-21T08:38:11;92.15;;;26.48;;
41921;SDS011;27609;51.002;5.354;2023-11-21T08:40:37;90.07;;;24.90;;
41921;SDS011;27609;51.002;5.354;2023-11-21T08:43:03;97.90;;;28.33;;
41921;SDS011;27609;51.002;5.354;2023-11-21T08:45:32;86.07;;;27.67;;
41921;SDS011;27609;51.002;5.354;2023-11-21T08:47:59;91.88;;;29.17;;
41921;SDS011;27609;51.002;5.354;2023-11-21T08:50:25;86.25;;;26.20;;
41921;SDS011;27609;51.002;5.354;2023-11-21T08:52:51;94.72;;;27.45;;
41921;SDS011;27609;51.002;5.354;2023-11-21T08:55:17;95.72;;;27.35;;
41921;SDS011;27609;51.002;5.354;2023-11-21T08:57:45;97.43;;;28.45;;
41921;SDS011;27609;51.002;5.354;2023-11-21T09:00:12;76.25;;;25.75;;
41921;SDS011;27609;51.002;5.354;2023-11-21T09:02:40;83.45;;;26.10;;
41921;SDS011;27609;51.002;5.354;2023-11-21T09:05:10;95.15;;;28.17;;
41921;SDS011;27609;51.002;5.354;2023-11-21T09:07:36;94.03;;;28.10;;
41921;SDS011;27609;51.002;5.354;2023-11-21T09:10:03;80.50;;;25.67;;
41921;SDS011;27609;51.002;5.354;2023-11-21T09:12:32;80.97;;;26.23;;
41921;SDS011;27609;51.002;5.354;2023-11-21T09:15:01;70.10;;;24.27;;
41921;SDS011;27609;51.002;5.354;2023-11-21T09:17:31;63.85;;;22.00;;
41921;SDS011;27609;51.002;5.354;2023-11-21T09:19:57;61.97;;;20.75;;
41921;SDS011;27609;51.002;5.354;2023-11-21T09:22:23;53.03;;;19.38;;
41921;SDS011;27609;51.002;5.354;2023-11-21T09:24:52;55.47;;;20.88;;
41921;SDS011;27609;51.002;5.354;2023-11-21T09:27:18;57.45;;;21.83;;
41921;SDS011;27609;51.002;5.354;2023-11-21T09:29:44;57.03;;;21.35;;
41921;SDS011;27609;51.002;5.354;2023-11-21T09:32:10;62.47;;;21.80;;
41921;SDS011;27609;51.002;5.354;2023-11-21T09:34:39;60.00;;;22.17;;
41921;SDS011;27609;51.002;5.354;2023-11-21T09:37:05;54.90;;;19.67;;
41921;SDS011;27609;51.002;5.354;2023-11-21T09:39:32;50.05;;;20.73;;
41921;SDS011;27609;51.002;5.354;2023-11-21T09:42:04;57.15;;;20.77;;
41921;SDS011;27609;51.002;5.354;2023-11-21T09:44:36;51.45;;;20.17;;
41921;SDS011;27609;51.002;5.354;2023-11-21T09:47:05;50.63;;;19.10;;
41921;SDS011;27609;51.002;5.354;2023-11-21T09:49:35;44.28;;;18.55;;
41921;SDS011;27609;51.002;5.354;2023-11-21T09:52:03;52.75;;;20.10;;
41921;SDS011;27609;51.002;5.354;2023-11-21T09:54:31;48.10;;;19.77;;
41921;SDS011;27609;51.002;5.354;2023-11-21T09:56:59;52.25;;;20.17;;
41921;SDS011;27609;51.002;5.354;2023-11-21T09:59:25;48.10;;;19.17;;
41921;SDS011;27609;51.002;5.354;2023-11-21T10:01:57;51.35;;;21.23;;
41921;SDS011;27609;51.002;5.354;2023-11-21T10:04:23;44.85;;;19.27;;
41921;SDS011;27609;51.002;5.354;2023-11-21T10:06:49;51.00;;;20.95;;
41921;SDS011;27609;51.002;5.354;2023-11-21T10:09:16;52.30;;;19.42;;
41921;SDS011;27609;51.002;5.354;2023-11-21T10:11:42;48.90;;;18.55;;
41921;SDS011;27609;51.002;5.354;2023-11-21T10:14:11;46.97;;;20.33;;
41921;SDS011;27609;51.002;5.354;2023-11-21T10:16:39;46.88;;;20.25;;
41921;SDS011;27609;51.002;5.354;2023-11-21T10:19:05;46.83;;;20.33;;
41921;SDS011;27609;51.002;5.354;2023-11-21T10:21:34;44.60;;;19.25;;
41921;SDS011;27609;51.002;5.354;2023-11-21T10:24:00;43.17;;;18.85;;
41921;SDS011;27609;51.002;5.354;2023-11-21T10:26:27;53.60;;;19.48;;
41921;SDS011;27609;51.002;5.354;2023-11-21T10:29:00;51.47;;;20.45;;
41921;SDS011;27609;51.002;5.354;2023-11-21T10:31:29;50.58;;;19.70;;
41921;SDS011;27609;51.002;5.354;2023-11-21T10:34:10;57.03;;;20.17;;
41921;SDS011;27609;51.002;5.354;2023-11-21T10:36:46;45.05;;;19.38;;
41921;SDS011;27609;51.002;5.354;2023-11-21T10:39:18;47.50;;;18.98;;
41921;SDS011;27609;51.002;5.354;2023-11-21T10:41:49;52.42;;;20.42;;
41921;SDS011;27609;51.002;5.354;2023-11-21T10:44:18;46.30;;;19.02;;
41921;SDS011;27609;51.002;5.354;2023-11-21T10:46:49;53.17;;;18.77;;
41921;SDS011;27609;51.002;5.354;2023-11-21T10:49:18;47.13;;;19.60;;
41921;SDS011;27609;51.002;5.354;2023-11-21T10:51:44;47.30;;;21.05;;
41921;SDS011;27609;51.002;5.354;2023-11-21T10:54:10;40.67;;;18.25;;
41921;SDS011;27609;51.002;5.354;2023-11-21T10:56:37;42.88;;;18.33;;
41921;SDS011;27609;51.002;5.354;2023-11-21T10:59:07;40.03;;;17.50;;
41921;SDS011;27609;51.002;5.354;2023-11-21T11:01:40;42.97;;;19.15;;
41921;SDS011;27609;51.002;5.354;2023-11-21T11:04:08;43.90;;;18.70;;
41921;SDS011;27609;51.002;5.354;2023-11-21T11:06:40;39.28;;;16.65;;
41921;SDS011;27609;51.002;5.354;2023-11-21T11:09:08;38.33;;;16.52;;
41921;SDS011;27609;51.002;5.354;2023-11-21T11:16:38;30.55;;;14.57;;
41921;SDS011;27609;51.002;5.354;2023-11-21T11:19:08;30.00;;;14.30;;
41921;SDS011;27609;51.002;5.354;2023-11-21T11:21:53;33.83;;;15.32;;
41921;SDS011;27609;51.002;5.354;2023-11-21T11:28:03;32.67;;;14.93;;
41921;SDS011;27609;51.002;5.354;2023-11-21T11:38:30;38.97;;;16.38;;
41921;SDS011;27609;51.002;5.354;2023-11-21T11:41:04;42.55;;;19.15;;
41921;SDS011;27609;51.002;5.354;2023-11-21T11:43:30;44.58;;;20.15;;
41921;SDS011;27609;51.002;5.354;2023-11-21T11:46:02;46.33;;;20.25;;
41921;SDS011;27609;51.002;5.354;2023-11-21T11:48:28;49.05;;;18.65;;
41921;SDS011;27609;51.002;5.354;2023-11-21T11:51:01;45.88;;;19.50;;
41921;SDS011;27609;51.002;5.354;2023-11-21T11:53:35;52.30;;;20.33;;
41921;SDS011;27609;51.002;5.354;2023-11-21T11:56:24;45.67;;;20.20;;
41921;SDS011;27609;51.002;5.354;2023-11-21T11:58:51;52.53;;;21.55;;
41921;SDS011;27609;51.002;5.354;2023-11-21T12:01:24;48.03;;;21.17;;
41921;SDS011;27609;51.002;5.354;2023-11-21T12:04:24;50.03;;;20.67;;
41921;SDS011;27609;51.002;5.354;2023-11-21T12:06:45;50.58;;;20.33;;
41921;SDS011;27609;51.002;5.354;2023-11-21T12:09:18;53.25;;;21.13;;
41921;SDS011;27609;51.002;5.354;2023-11-21T12:11:46;51.55;;;20.08;;
41921;SDS011;27609;51.002;5.354;2023-11-21T12:14:16;49.33;;;20.35;;
41921;SDS011;27609;51.002;5.354;2023-11-21T12:16:42;50.13;;;22.53;;
41921;SDS011;27609;51.002;5.354;2023-11-21T12:19:09;45.83;;;20.40;;
41921;SDS011;27609;51.002;5.354;2023-11-21T12:21:36;43.08;;;19.33;;
41921;SDS011;27609;51.002;5.354;2023-11-21T12:24:02;42.47;;;19.02;;
41921;SDS011;27609;51.002;5.354;2023-11-21T12:26:28;39.22;;;19.48;;
41921;SDS011;27609;51.002;5.354;2023-11-21T12:28:54;39.70;;;18.23;;
41921;SDS011;27609;51.002;5.354;2023-11-21T12:31:21;35.47;;;17.58;;
41921;SDS011;27609;51.002;5.354;2023-11-21T12:33:47;35.83;;;17.75;;
41921;SDS011;27609;51.002;5.354;2023-11-21T12:36:13;38.53;;;18.08;;
41921;SDS011;27609;51.002;5.354;2023-11-21T12:38:39;42.45;;;18.77;;
41921;SDS011;27609;51.002;5.354;2023-11-21T12:41:05;40.67;;;18.67;;
41921;SDS011;27609;51.002;5.354;2023-11-21T12:43:31;41.28;;;20.40;;
41921;SDS011;27609;51.002;5.354;2023-11-21T12:46:08;44.70;;;20.38;;
41921;SDS011;27609;51.002;5.354;2023-11-21T12:48:41;46.72;;;21.25;;
41921;SDS011;27609;51.002;5.354;2023-11-21T12:51:10;52.15;;;21.98;;
41921;SDS011;27609;51.002;5.354;2023-11-21T12:53:40;47.83;;;22.67;;
41921;SDS011;27609;51.002;5.354;2023-11-21T12:56:07;55.67;;;23.67;;
41921;SDS011;27609;51.002;5.354;2023-11-21T12:58:38;48.60;;;22.35;;
41921;SDS011;27609;51.002;5.354;2023-11-21T13:01:08;51.47;;;24.08;;
41921;SDS011;27609;51.002;5.354;2023-11-21T13:03:37;47.83;;;22.27;;
41921;SDS011;27609;51.002;5.354;2023-11-21T13:06:04;48.67;;;22.45;;
41921;SDS011;27609;51.002;5.354;2023-11-21T13:08:30;47.80;;;22.20;;
41921;SDS011;27609;51.002;5.354;2023-11-21T13:10:58;39.40;;;20.15;;
41921;SDS011;27609;51.002;5.354;2023-11-21T13:13:25;37.20;;;18.13;;
41921;SDS011;27609;51.002;5.354;2023-11-21T13:15:56;37.88;;;18.13;;
41921;SDS011;27609;51.002;5.354;2023-11-21T13:18:30;31.23;;;16.33;;
41921;SDS011;27609;51.002;5.354;2023-11-21T13:20:58;34.03;;;17.02;;
41921;SDS011;27609;51.002;5.354;2023-11-21T13:23:25;30.52;;;15.90;;
41921;SDS011;27609;51.002;5.354;2023-11-21T13:25:52;28.60;;;15.90;;
41921;SDS011;27609;51.002;5.354;2023-11-21T13:28:18;26.85;;;15.05;;
41921;SDS011;27609;51.002;5.354;2023-11-21T13:30:46;24.92;;;14.43;;
41921;SDS011;27609;51.002;5.354;2023-11-21T13:33:13;32.45;;;15.38;;
41921;SDS011;27609;51.002;5.354;2023-11-21T13:35:42;32.70;;;16.73;;
41921;SDS011;27609;51.002;5.354;2023-11-21T13:38:14;29.52;;;15.45;;
41921;SDS011;27609;51.002;5.354;2023-11-21T13:40:51;28.92;;;13.95;;
41921;SDS011;27609;51.002;5.354;2023-11-21T13:43:19;26.83;;;14.02;;
41921;SDS011;27609;51.002;5.354;2023-11-21T13:45:47;28.52;;;14.25;;
41921;SDS011;27609;51.002;5.354;2023-11-21T13:48:26;25.23;;;13.45;;
41921;SDS011;27609;51.002;5.354;2023-11-21T13:51:07;24.58;;;13.20;;
41921;SDS011;27609;51.002;5.354;2023-11-21T13:53:45;25.88;;;14.80;;
41921;SDS011;27609;51.002;5.354;2023-11-21T13:56:14;28.55;;;15.45;;
41921;SDS011;27609;51.002;5.354;2023-11-21T13:58:48;28.67;;;14.27;;
41921;SDS011;27609;51.002;5.354;2023-11-21T14:01:19;23.65;;;15.48;;
41921;SDS011;27609;51.002;5.354;2023-11-21T14:06:45;28.77;;;14.95;;
41921;SDS011;27609;51.002;5.354;2023-11-21T14:09:21;24.27;;;15.25;;
41921;SDS011;27609;51.002;5.354;2023-11-21T14:11:50;25.15;;;14.32;;
41921;SDS011;27609;51.002;5.354;2023-11-21T14:14:21;25.98;;;13.90;;
41921;SDS011;27609;51.002;5.354;2023-11-21T14:16:49;25.45;;;13.73;;
41921;SDS011;27609;51.002;5.354;2023-11-21T14:19:16;23.83;;;14.00;;
41921;SDS011;27609;51.002;5.354;2023-11-21T14:21:43;26.55;;;14.13;;
41921;SDS011;27609;51.002;5.354;2023-11-21T14:24:09;28.13;;;13.75;;
41921;SDS011;27609;51.002;5.354;2023-11-21T14:26:37;26.23;;;14.07;;
41921;SDS011;27609;51.002;5.354;2023-11-21T14:29:04;23.38;;;13.40;;
41921;SDS011;27609;51.002;5.354;2023-11-21T14:31:30;25.48;;;13.80;;
41921;SDS011;27609;51.002;5.354;2023-11-21T14:33:57;23.15;;;14.60;;
41921;SDS011;27609;51.002;5.354;2023-11-21T14:36:22;28.70;;;15.32;;
41921;SDS011;27609;51.002;5.354;2023-11-21T14:38:49;28.20;;;14.05;;
41921;SDS011;27609;51.002;5.354;2023-11-21T14:41:14;31.25;;;15.65;;